Time;durP1;ratioP1;P1;durP2;ratioP2;P2;SDS_P1;SDS_P2;PMS_P1;PMS_P2;Temp;Humidity;BMP_temperature;BMP_pressure;BME280_temperature;BME280_humidity;BME280_pressure;Samples;Min_cycle;Max_cycle;Signal;HPM_P1;HPM_P2
2022/09/21 00:01:12;;;;;;;1.57;1.43;;;;;;;5.09;100.00;101601.72;5010211;28;20204;-74
2022/09/21 00:03:40;;;;;;;1.57;1.47;;;;;;;5.06;100.00;101599.97;5008847;28;20217;-75
2022/09/21 00:06:09;;;;;;;1.30;1.20;;;;;;;5.00;100.00;101601.63;5003430;28;20697;-74
2022/09/21 00:08:37;;;;;;;1.37;1.20;;;;;;;5.04;100.00;101601.66;5004419;28;20196;-74
2022/09/21 00:11:04;;;;;;;1.60;1.50;;;;;;;5.08;100.00;101603.47;5005449;28;20211;-74
2022/09/21 00:13:31;;;;;;;3.93;1.20;;;;;;;5.07;100.00;101608.59;5004863;28;20205;-74
2022/09/21 00:15:58;;;;;;;1.37;1.30;;;;;;;5.06;100.00;101609.44;5007801;28;20224;-74
2022/09/21 00:18:25;;;;;;;1.30;1.00;;;;;;;5.07;100.00;101606.88;5011546;28;20341;-73
2022/09/21 00:20:52;;;;;;;1.83;1.40;;;;;;;5.16;100.00;101608.72;4993993;28;20695;-74
2022/09/21 00:23:19;;;;;;;1.30;1.20;;;;;;;5.21;100.00;101606.19;5012470;28;20210;-74
2022/09/21 00:25:46;;;;;;;1.23;1.13;;;;;;;5.11;100.00;101610.38;5005752;28;20217;-75
2022/09/21 00:28:13;;;;;;;3.50;1.20;;;;;;;5.08;100.00;101613.81;5013711;28;20199;-74
2022/09/21 00:30:39;;;;;;;1.67;1.57;;;;;;;5.08;100.00;101618.09;5005054;28;20208;-74
2022/09/21 00:33:06;;;;;;;1.40;1.30;;;;;;;5.06;100.00;101615.47;5011294;28;20201;-74
2022/09/21 00:35:33;;;;;;;1.93;1.40;;;;;;;5.16;100.00;101616.47;4990756;28;20220;-74
2022/09/21 00:38:04;;;;;;;1.97;1.60;;;;;;;5.17;100.00;101618.22;5004401;28;20212;-74
2022/09/21 00:40:31;;;;;;;1.37;1.27;;;;;;;5.25;100.00;101616.56;5006716;28;20196;-74
2022/09/21 00:43:13;;;;;;;1.27;1.17;;;;;;;5.28;100.00;101626.94;4992187;28;20910;-74
2022/09/21 00:45:40;;;;;;;1.57;1.30;;;;;;;5.21;100.00;101621.72;5005710;28;20256;-73
2022/09/21 00:48:07;;;;;;;1.50;1.40;;;;;;;5.30;100.00;101614.03;5009000;28;20200;-74
2022/09/21 00:50:35;;;;;;;2.40;1.47;;;;;;;5.42;100.00;101621.94;4990572;28;20219;-74
2022/09/21 00:53:04;;;;;;;1.87;1.77;;;;;;;5.47;100.00;101622.88;4990704;28;20670;-74
2022/09/21 00:55:36;;;;;;;3.60;1.70;;;;;;;5.49;100.00;101628.91;5005842;28;20732;-74
2022/09/21 00:58:07;;;;;;;2.27;1.80;;;;;;;5.61;100.00;101625.59;5009946;28;20216;-74
2022/09/21 01:00:35;;;;;;;1.70;1.50;;;;;;;5.64;100.00;101625.59;5011061;28;20275;-74
2022/09/21 01:03:03;;;;;;;1.73;1.40;;;;;;;5.68;100.00;101623.91;5009052;28;20284;-73
2022/09/21 01:05:29;;;;;;;1.60;1.50;;;;;;;5.61;100.00;101614.34;5011201;28;20303;-74
2022/09/21 01:07:59;;;;;;;1.70;1.60;;;;;;;5.67;100.00;101625.66;5012316;28;20196;-76
2022/09/21 01:10:27;;;;;;;1.67;1.57;;;;;;;5.69;100.00;101626.53;5014240;28;20255;-76
2022/09/21 01:13:06;;;;;;;2.03;1.43;;;;;;;5.70;100.00;101627.41;4991454;28;20585;-74
2022/09/21 01:15:44;;;;;;;1.90;1.70;;;;;;;5.79;100.00;101626.63;5000991;28;20217;-75
2022/09/21 01:18:21;;;;;;;2.10;1.93;;;;;;;5.85;100.00;101626.69;5009591;28;20211;-74
2022/09/21 01:21:17;;;;;;;2.00;1.73;;;;;;;5.86;100.00;101631.88;5022798;28;20204;-74
2022/09/21 01:24:11;;;;;;;1.60;1.50;;;;;;;5.83;100.00;101634.44;5000241;28;20197;-75
2022/09/21 01:26:54;;;;;;;1.50;1.40;;;;;;;5.82;100.00;101634.41;4982059;28;20266;-74
2022/09/21 01:29:26;;;;;;;2.13;1.90;;;;;;;5.90;100.00;101635.34;5003491;28;20196;-75
2022/09/21 01:31:58;;;;;;;1.67;1.57;;;;;;;5.85;100.00;101631.84;5004300;28;20204;-74
2022/09/21 01:34:31;;;;;;;1.87;1.50;;;;;;;5.86;100.00;101634.47;5002839;28;20304;-74
2022/09/21 01:37:03;;;;;;;1.60;1.50;;;;;;;5.81;100.00;101636.13;5008377;28;20200;-74
2022/09/21 01:39:33;;;;;;;1.63;1.47;;;;;;;5.91;100.00;101641.38;5004926;28;20219;-76
2022/09/21 01:42:02;;;;;;;2.20;2.00;;;;;;;5.81;100.00;101641.31;5004701;28;20486;-74
2022/09/21 01:44:33;;;;;;;2.10;1.90;;;;;;;5.87;100.00;101638.81;5021755;23;20225;-75
2022/09/21 01:47:02;;;;;;;1.90;1.70;;;;;;;5.86;100.00;101644.81;5036343;28;20213;-76
2022/09/21 01:49:35;;;;;;;1.73;1.63;;;;;;;5.95;100.00;101645.75;5028549;28;20210;-76
2022/09/21 01:52:10;;;;;;;1.57;1.47;;;;;;;5.98;100.00;101641.50;5029499;28;20199;-75
2022/09/21 01:54:44;;;;;;;1.70;1.60;;;;;;;6.01;100.00;101646.69;5034305;28;21031;-75
2022/09/21 01:57:14;;;;;;;1.70;1.60;;;;;;;6.01;100.00;101651.00;5013615;28;20208;-75
2022/09/21 01:59:49;;;;;;;1.67;1.50;;;;;;;6.07;100.00;101648.50;5022717;28;20219;-75
2022/09/21 02:02:18;;;;;;;2.17;1.90;;;;;;;6.07;100.00;101654.53;5017413;28;20202;-75
2022/09/21 02:04:44;;;;;;;1.77;1.67;;;;;;;6.20;100.00;101655.50;5020010;28;20223;-74
2022/09/21 02:07:11;;;;;;;1.30;1.20;;;;;;;6.21;100.00;101658.97;5023431;28;20212;-76
2022/09/21 02:09:38;;;;;;;1.60;1.50;;;;;;;6.22;100.00;101658.97;5019733;28;20200;-75
2022/09/21 02:12:05;;;;;;;2.70;1.73;;;;;;;6.29;100.00;101652.13;5022258;28;20223;-74
2022/09/21 02:14:33;;;;;;;2.07;1.70;;;;;;;6.35;100.00;101656.47;5018586;28;20228;-76
2022/09/21 02:17:11;;;;;;;2.20;1.80;;;;;;;6.43;100.00;101655.69;5016384;28;20275;-75
2022/09/21 02:19:45;;;;;;;4.10;1.70;;;;;;;6.45;100.00;101658.28;5017219;28;20228;-75
2022/09/21 02:22:17;;;;;;;2.23;2.03;;;;;;;6.43;100.00;101654.81;5021350;28;20203;-75
2022/09/21 02:24:46;;;;;;;2.93;1.93;;;;;;;6.39;100.00;101659.09;5017531;28;20226;-76
2022/09/21 02:27:23;;;;;;;1.70;1.60;;;;;;;6.34;100.00;101659.94;5019871;28;20279;-74
2022/09/21 02:29:57;;;;;;;1.60;1.50;;;;;;;6.39;100.00;101659.09;5018660;28;20216;-74
2022/09/21 02:32:34;;;;;;;1.80;1.70;;;;;;;6.38;100.00;101654.78;5023996;28;20208;-75
2022/09/21 02:35:03;;;;;;;1.53;1.43;;;;;;;6.38;100.00;101661.69;5025070;28;20211;-76
2022/09/21 02:37:37;;;;;;;1.60;1.50;;;;;;;6.35;100.00;101659.06;5020219;28;20197;-75
2022/09/21 02:40:10;;;;;;;1.80;1.70;;;;;;;6.29;100.00;101657.28;5020335;28;20232;-75
2022/09/21 02:42:42;;;;;;;2.30;1.80;;;;;;;6.33;100.00;101653.91;5018328;28;20197;-74
2022/09/21 02:45:14;;;;;;;1.80;1.70;;;;;;;6.32;100.00;101652.16;5022344;28;20240;-75
2022/09/21 02:47:48;;;;;;;2.00;1.67;;;;;;;6.37;100.00;101657.38;5025799;28;20204;-77
2022/09/21 02:50:20;;;;;;;3.90;1.73;;;;;;;6.39;100.00;101658.25;5005376;28;20899;-75
2022/09/21 02:52:46;;;;;;;1.57;1.47;;;;;;;6.42;100.00;101655.66;5019573;28;20206;-74
2022/09/21 02:55:17;;;;;;;1.63;1.53;;;;;;;6.46;100.00;101659.16;5018857;28;20303;-75
2022/09/21 02:57:47;;;;;;;1.73;1.63;;;;;;;6.54;100.00;101662.66;5026151;28;20208;-75
2022/09/21 03:00:15;;;;;;;2.00;1.90;;;;;;;6.50;100.00;101666.97;5024394;28;20881;-74
2022/09/21 03:02:44;;;;;;;4.23;2.10;;;;;;;6.50;100.00;101663.50;5017858;28;20296;-77
2022/09/21 03:05:12;;;;;;;1.60;1.40;;;;;;;6.53;100.00;101669.56;5015100;28;20239;-75
2022/09/21 03:07:39;;;;;;;2.93;2.20;;;;;;;6.51;100.00;101666.13;5027001;28;20216;-75
2022/09/21 03:10:07;;;;;;;2.00;1.80;;;;;;;6.49;100.00;101665.25;5025102;28;20274;-75
2022/09/21 03:12:33;;;;;;;2.67;1.80;;;;;;;6.48;100.00;101670.41;5024695;28;20202;-76
2022/09/21 03:14:59;;;;;;;2.30;1.60;;;;;;;6.53;100.00;101671.31;5023151;28;20217;-75
2022/09/21 03:17:26;;;;;;;1.90;1.70;;;;;;;6.51;100.00;101680.78;5024722;28;20253;-75
2022/09/21 03:19:55;;;;;;;1.70;1.50;;;;;;;6.60;100.00;101670.50;5024468;28;20702;-75
2022/09/21 03:22:22;;;;;;;2.37;1.73;;;;;;;6.58;100.00;101674.81;5020899;28;20212;-76
2022/09/21 03:24:48;;;;;;;1.77;1.67;;;;;;;6.53;100.00;101676.50;5023395;28;20246;-74
2022/09/21 03:27:17;;;;;;;2.10;1.90;;;;;;;6.53;100.00;101679.94;5026396;28;20617;-76
2022/09/21 03:29:44;;;;;;;2.20;1.77;;;;;;;6.53;100.00;101671.31;5019264;28;20280;-75
2022/09/21 03:32:10;;;;;;;2.10;2.00;;;;;;;6.58;100.00;101670.47;5025385;28;20252;-75
2022/09/21 03:34:37;;;;;;;1.60;1.50;;;;;;;6.57;100.00;101679.09;5023004;28;20302;-74
2022/09/21 03:37:06;;;;;;;2.10;1.90;;;;;;;6.55;100.00;101672.19;5027309;28;20727;-75
2022/09/21 03:39:32;;;;;;;2.17;1.60;;;;;;;6.54;100.00;101679.06;5021564;28;20213;-75
2022/09/21 03:41:59;;;;;;;1.97;1.70;;;;;;;6.56;100.00;101682.56;5025021;28;20653;-75
2022/09/21 03:44:26;;;;;;;1.90;1.80;;;;;;;6.63;100.00;101681.75;5029364;28;20221;-75
2022/09/21 03:46:53;;;;;;;1.70;1.60;;;;;;;6.57;100.00;101680.84;5012101;28;20206;-75
2022/09/21 03:49:20;;;;;;;1.90;1.80;;;;;;;6.58;100.00;101680.84;5020248;28;20211;-76
2022/09/21 03:51:46;;;;;;;1.70;1.50;;;;;;;6.56;100.00;101685.16;5021806;28;20204;-75
2022/09/21 03:54:14;;;;;;;2.37;1.93;;;;;;;6.58;100.00;101685.16;5026267;28;20628;-75
2022/09/21 03:56:40;;;;;;;5.23;2.00;;;;;;;6.58;100.00;101692.94;5021684;28;20214;-76
2022/09/21 03:59:07;;;;;;;3.13;1.83;;;;;;;6.59;100.00;101689.47;5020455;28;20229;-76
2022/09/21 04:01:35;;;;;;;1.80;1.70;;;;;;;6.51;100.00;101688.53;5023964;28;20679;-74
2022/09/21 04:04:01;;;;;;;1.67;1.37;;;;;;;6.53;100.00;101690.31;5028725;28;20939;-75
2022/09/21 04:06:28;;;;;;;1.70;1.60;;;;;;;6.48;100.00;101694.59;5019959;28;20216;-75
2022/09/21 04:08:55;;;;;;;1.60;1.50;;;;;;;6.38;100.00;101691.03;5027341;28;20220;-74
2022/09/21 04:11:23;;;;;;;1.67;1.57;;;;;;;6.34;100.00;101689.28;5021639;28;20205;-76
2022/09/21 04:13:51;;;;;;;2.30;2.03;;;;;;;6.32;100.00;101687.56;5019881;28;20619;-75
2022/09/21 04:16:17;;;;;;;1.67;1.57;;;;;;;6.35;100.00;101685.84;5021421;28;20963;-75
2022/09/21 04:18:44;;;;;;;1.80;1.70;;;;;;;6.33;100.00;101692.75;5015676;28;20218;-75
2022/09/21 04:21:10;;;;;;;1.83;1.73;;;;;;;6.33;100.00;101697.94;5019913;28;20208;-75
2022/09/21 04:23:37;;;;;;;3.57;2.00;;;;;;;6.35;100.00;101698.81;5024469;28;20572;-75
2022/09/21 04:26:03;;;;;;;2.10;1.77;;;;;;;6.39;100.00;101697.97;5023950;28;20262;-75
2022/09/21 04:28:31;;;;;;;2.30;1.83;;;;;;;6.40;100.00;101698.81;5025849;28;20204;-75
2022/09/21 04:30:58;;;;;;;1.70;1.57;;;;;;;6.32;100.00;101698.78;5025641;28;20259;-75
2022/09/21 04:33:24;;;;;;;2.10;1.90;;;;;;;6.35;100.00;101697.91;5023571;28;21167;-75
2022/09/21 04:35:54;;;;;;;2.00;1.80;;;;;;;6.38;100.00;101703.13;5023725;28;20647;-75
2022/09/21 04:38:21;;;;;;;1.87;1.77;;;;;;;6.40;100.00;101712.66;5008969;28;20215;-76
2022/09/21 04:40:54;;;;;;;2.73;2.20;;;;;;;6.47;100.00;101710.13;5018368;28;21604;-75
2022/09/21 04:43:21;;;;;;;1.80;1.70;;;;;;;6.47;100.00;101710.13;5016132;28;20204;-75
2022/09/21 04:45:48;;;;;;;1.83;1.73;;;;;;;6.58;100.00;101714.53;5019895;28;20760;-75
2022/09/21 04:48:15;;;;;;;3.00;1.97;;;;;;;6.58;100.00;101711.94;5023186;28;20226;-75
2022/09/21 04:50:41;;;;;;;2.40;2.20;;;;;;;6.48;100.00;101714.44;5020086;28;20202;-76
2022/09/21 04:53:09;;;;;;;2.37;2.17;;;;;;;6.49;100.00;101716.16;5015394;28;20197;-76
2022/09/21 04:55:35;;;;;;;1.80;1.70;;;;;;;6.50;100.00;101720.50;5015570;28;20227;-75
2022/09/21 04:58:02;;;;;;;1.70;1.60;;;;;;;6.47;100.00;101721.34;5021940;28;20215;-75
2022/09/21 05:00:29;;;;;;;2.37;2.00;;;;;;;6.52;100.00;101726.56;5017598;28;20309;-75
2022/09/21 05:02:57;;;;;;;2.23;2.03;;;;;;;6.49;100.00;101719.66;5022154;28;20223;-76
2022/09/21 05:05:23;;;;;;;3.43;1.97;;;;;;;6.51;100.00;101711.88;5019762;28;20228;-77
2022/09/21 05:07:49;;;;;;;3.50;2.33;;;;;;;6.46;100.00;101714.44;5016109;28;20201;-75
2022/09/21 05:10:15;;;;;;;4.20;2.17;;;;;;;6.39;100.00;101712.66;5017721;28;20677;-76
2022/09/21 05:12:42;;;;;;;2.20;2.00;;;;;;;6.37;100.00;101720.41;5023868;28;20199;-77
2022/09/21 05:15:10;;;;;;;2.33;2.10;;;;;;;6.34;100.00;101722.09;5026938;28;20774;-74
2022/09/21 05:17:36;;;;;;;2.47;2.10;;;;;;;6.40;100.00;101720.44;5018674;28;20204;-75
2022/09/21 05:20:05;;;;;;;2.57;2.23;;;;;;;6.33;100.00;101716.06;5023455;28;20224;-74
2022/09/21 05:22:32;;;;;;;2.43;1.80;;;;;;;6.31;100.00;101716.88;5014693;28;20527;-75
2022/09/21 05:24:58;;;;;;;2.60;2.27;;;;;;;6.28;100.00;101716.84;5021592;28;20216;-75
2022/09/21 05:27:24;;;;;;;2.00;1.90;;;;;;;6.36;100.00;101728.16;5023774;28;20204;-75
2022/09/21 05:29:51;;;;;;;3.17;2.40;;;;;;;6.40;100.00;101736.00;5025127;28;20704;-74
2022/09/21 05:32:24;;;;;;;2.43;2.00;;;;;;;6.36;100.00;101741.13;5019869;28;20251;-75
2022/09/21 05:35:02;;;;;;;2.40;2.20;;;;;;;6.43;100.00;101735.13;5022701;28;20644;-75
2022/09/21 05:37:46;;;;;;;2.67;2.20;;;;;;;6.42;100.00;101735.97;5023706;28;20209;-75
2022/09/21 05:40:13;;;;;;;5.13;2.37;;;;;;;6.44;100.00;101742.91;5021455;28;20580;-75
2022/09/21 05:42:41;;;;;;;2.63;2.23;;;;;;;6.46;100.00;101739.47;5021652;28;20201;-74
2022/09/21 05:45:12;;;;;;;2.70;2.47;;;;;;;6.52;100.00;101745.56;5016327;28;20235;-75
2022/09/21 05:47:45;;;;;;;2.53;2.27;;;;;;;6.55;100.00;101753.38;5022467;28;20208;-75
2022/09/21 05:50:24;;;;;;;2.70;2.50;;;;;;;6.59;100.00;101756.84;5023618;28;20196;-75
2022/09/21 05:53:02;;;;;;;5.67;2.47;;;;;;;6.58;100.00;101749.97;5021823;28;20272;-76
2022/09/21 05:55:40;;;;;;;4.10;2.20;;;;;;;6.71;100.00;101753.50;5021501;28;20226;-75
2022/09/21 05:58:17;;;;;;;3.17;2.30;;;;;;;6.76;100.00;101757.00;5021873;28;20219;-75
2022/09/21 06:00:59;;;;;;;3.13;2.83;;;;;;;6.78;100.00;101757.88;5019240;28;20569;-75
2022/09/21 06:03:28;;;;;;;3.90;2.50;;;;;;;6.73;100.00;101759.56;5022484;28;20205;-75
2022/09/21 06:05:55;;;;;;;2.70;2.50;;;;;;;6.77;100.00;101753.53;5020625;28;20693;-74
2022/09/21 06:08:23;;;;;;;2.70;2.50;;;;;;;6.74;100.00;101753.53;5014687;28;20211;-76
2022/09/21 06:10:49;;;;;;;3.47;2.83;;;;;;;6.68;100.00;101759.50;5013817;28;20189;-75
2022/09/21 06:13:16;;;;;;;3.00;2.70;;;;;;;6.77;100.00;101756.13;5020758;28;20205;-76
2022/09/21 06:15:42;;;;;;;2.30;2.10;;;;;;;6.83;100.00;101759.63;5019533;28;20224;-75
2022/09/21 06:18:09;;;;;;;5.17;2.50;;;;;;;6.92;100.00;101756.25;5019610;28;20271;-74
2022/09/21 06:20:35;;;;;;;3.50;2.90;;;;;;;6.86;100.00;101760.50;5001286;28;20225;-75
2022/09/21 06:23:02;;;;;;;4.97;2.87;;;;;;;6.86;100.00;101766.59;5018479;28;20210;-76
2022/09/21 06:25:30;;;;;;;3.90;2.67;;;;;;;6.90;100.00;101757.09;5019839;28;20220;-75
2022/09/21 06:28:01;;;;;;;8.43;3.80;;;;;;;6.91;100.00;101764.00;5018868;28;20201;-75
2022/09/21 06:30:28;;;;;;;3.67;3.33;;;;;;;6.96;100.00;101760.59;5020249;28;20692;-75
2022/09/21 06:32:54;;;;;;;3.27;2.87;;;;;;;7.00;100.00;101759.78;5020288;28;20263;-75
2022/09/21 06:35:20;;;;;;;4.37;3.23;;;;;;;7.11;100.00;101769.34;5020680;28;20224;-76
2022/09/21 06:37:47;;;;;;;3.87;3.47;;;;;;;7.10;100.00;101765.88;5020472;28;20204;-75
2022/09/21 06:40:13;;;;;;;4.33;2.90;;;;;;;7.13;100.00;101762.44;5022246;28;20225;-76
2022/09/21 06:42:41;;;;;;;6.37;3.50;;;;;;;7.21;100.00;101763.34;5018673;28;20208;-76
2022/09/21 06:45:08;;;;;;;6.23;3.70;;;;;;;7.24;100.00;101765.09;5023252;28;20739;-75
2022/09/21 06:47:35;;;;;;;4.10;3.57;;;;;;;7.33;100.00;101767.75;5027527;28;20212;-75
2022/09/21 06:50:02;;;;;;;8.00;3.83;;;;;;;7.38;100.00;101766.03;5025143;28;20205;-75
2022/09/21 06:52:28;;;;;;;3.70;3.37;;;;;;;7.39;100.00;101766.06;5025822;28;20213;-75
2022/09/21 06:54:54;;;;;;;6.17;4.33;;;;;;;7.50;100.00;101779.06;5024217;28;20634;-76
2022/09/21 06:57:22;;;;;;;4.30;3.87;;;;;;;7.63;100.00;101774.81;5020275;28;20210;-77
2022/09/21 06:59:50;;;;;;;5.30;3.90;;;;;;;7.73;100.00;101767.94;5024031;28;20221;-76
2022/09/21 07:02:17;;;;;;;9.13;4.93;;;;;;;7.82;100.00;101777.50;5017801;28;20269;-75
2022/09/21 07:04:43;;;;;;;5.57;4.00;;;;;;;7.92;100.00;101774.06;5023044;28;20216;-75
2022/09/21 07:07:10;;;;;;;6.37;4.37;;;;;;;8.06;100.00;101781.91;5023421;28;20210;-76
2022/09/21 07:09:36;;;;;;;5.20;4.27;;;;;;;8.22;100.00;101772.41;5024764;28;20762;-76
2022/09/21 07:12:06;;;;;;;5.73;5.13;;;;;;;8.33;100.00;101789.72;5024422;28;20203;-74
2022/09/21 07:14:33;;;;;;;5.60;4.47;;;;;;;8.46;100.00;101787.19;5026421;28;20611;-75
2022/09/21 07:17:01;;;;;;;7.57;5.27;;;;;;;8.48;100.00;101782.88;5023506;28;20199;-74
2022/09/21 07:19:27;;;;;;;6.57;5.17;;;;;;;8.55;100.00;101789.81;5021396;28;20207;-74
2022/09/21 07:21:54;;;;;;;6.03;5.00;;;;;;;8.67;100.00;101794.13;5019832;28;20579;-76
2022/09/21 07:24:20;;;;;;;6.40;5.20;;;;;;;8.77;100.00;101795.00;5022463;28;20282;-75
2022/09/21 07:26:48;;;;;;;7.17;5.10;;;;;;;8.73;100.00;101786.34;5024467;28;20200;-76
2022/09/21 07:29:14;;;;;;;7.63;5.33;;;;;;;8.84;100.00;101789.81;5027273;28;20211;-75
2022/09/21 07:31:43;;;;;;;9.20;5.43;;;;;;;8.85;100.00;101788.94;5024792;28;20207;-77
2022/09/21 07:34:10;;;;;;;7.03;5.73;;;;;;;8.96;100.00;101782.88;5023811;28;20201;-77
2022/09/21 07:36:37;;;;;;;8.57;5.67;;;;;;;8.99;100.00;101786.34;5022368;28;20697;-74
2022/09/21 07:39:04;;;;;;;6.93;5.43;;;;;;;9.02;100.00;101786.34;5019848;28;20204;-77
2022/09/21 07:41:30;;;;;;;9.77;5.57;;;;;;;9.16;100.00;101785.44;5017905;28;20228;-77
2022/09/21 07:43:56;;;;;;;7.83;5.60;;;;;;;9.26;100.00;101784.56;5018621;28;20212;-76
2022/09/21 07:46:23;;;;;;;8.67;5.73;;;;;;;9.41;100.00;101783.63;5039863;22;20233;-79
2022/09/21 07:48:53;;;;;;;7.93;5.47;;;;;;;9.52;100.00;101781.88;5024985;28;20200;-80
2022/09/21 07:51:21;;;;;;;7.87;5.37;;;;;;;9.63;100.00;101776.63;5027292;28;20652;-82
2022/09/21 07:53:48;;;;;;;6.67;5.50;;;;;;;9.75;100.00;101771.38;5007654;28;20611;-79
2022/09/21 07:56:16;;;;;;;9.60;5.50;;;;;;;9.86;100.00;101769.56;5009281;28;20214;-79
2022/09/21 08:01:28;;;;;;;9.07;5.67;;;;;;;10.28;100.00;101771.09;5022347;28;20266;-76
2022/09/21 08:03:57;;;;;;;7.53;5.90;;;;;;;10.40;100.00;101769.28;5002774;28;20198;-77
2022/09/21 08:06:27;;;;;;;8.83;5.90;;;;;;;10.49;100.00;101773.56;5017852;28;20704;-76
2022/09/21 08:08:53;;;;;;;10.60;5.80;;;;;;;10.63;100.00;101770.00;5005485;28;20206;-76
2022/09/21 08:11:22;;;;;;;7.93;5.93;;;;;;;10.71;100.00;101771.69;5018072;28;20261;-77
2022/09/21 08:13:51;;;;;;;8.23;5.80;;;;;;;10.85;100.00;101778.50;5019342;28;20600;-76
2022/09/21 08:16:18;;;;;;;8.43;5.33;;;;;;;10.90;100.00;101767.13;5001368;28;20680;-76
2022/09/21 08:18:44;;;;;;;10.60;6.13;;;;;;;11.07;100.00;101772.22;5007259;28;20203;-77
2022/09/21 08:21:11;;;;;;;8.03;5.27;;;;;;;11.11;100.00;101771.28;5018035;28;20278;-76
2022/09/21 08:23:41;;;;;;;10.43;6.00;;;;;;;11.21;100.00;101769.47;5005414;28;20306;-77
2022/09/21 08:26:10;;;;;;;5.67;4.03;;;;;;;11.34;100.00;101773.69;5001642;28;20215;-77
2022/09/21 08:28:37;;;;;;;6.77;3.67;;;;;;;11.43;100.00;101777.91;5039098;28;20195;-75
2022/09/21 08:31:07;;;;;;;6.43;3.40;;;;;;;11.55;100.00;101782.13;5032616;28;20223;-76
2022/09/21 08:33:34;;;;;;;4.57;3.37;;;;;;;11.62;100.00;101780.31;5020743;28;20215;-74
2022/09/21 08:36:01;;;;;;;3.87;3.07;;;;;;;11.57;100.00;101785.59;5026171;28;20212;-75
2022/09/21 08:38:32;;;;;;;6.03;3.17;;;;;;;11.64;100.00;101782.00;5051648;28;20191;-74
2022/09/21 08:41:00;;;;;;;5.47;3.43;;;;;;;11.68;100.00;101780.22;5037145;28;20502;-75
2022/09/21 08:43:34;;;;;;;3.80;3.20;;;;;;;11.62;100.00;101786.41;5050522;28;20376;-74
2022/09/21 08:46:05;;;;;;;4.50;3.13;;;;;;;11.68;100.00;101785.44;5030424;28;20200;-75
2022/09/21 08:48:40;;;;;;;4.63;3.20;;;;;;;11.80;100.00;101787.06;5044808;28;20193;-75
2022/09/21 08:51:11;;;;;;;3.23;2.70;;;;;;;11.81;100.00;101794.88;5044589;28;20201;-74
2022/09/21 08:53:40;;;;;;;4.83;3.10;;;;;;;11.92;100.00;101797.38;5034642;28;20213;-74
2022/09/21 08:56:11;;;;;;;3.10;2.53;;;;;;;12.02;100.00;101798.13;5048093;28;20187;-75
2022/09/21 08:58:39;;;;;;;4.27;2.77;;;;;;;12.05;100.00;101800.72;5049232;28;20181;-74
2022/09/21 09:01:23;;;;;;;2.43;1.90;;;;;;;12.15;100.00;101797.06;5033466;28;20233;-74
2022/09/21 09:04:04;;;;;;;1.70;1.60;;;;;;;12.27;100.00;101796.88;5044856;28;20188;-75
2022/09/21 09:06:40;;;;;;;1.10;1.00;;;;;;;12.41;100.00;101801.06;5040191;28;20186;-76
2022/09/21 09:09:33;;;;;;;1.60;1.10;;;;;;;12.51;100.00;101800.03;5040050;28;20196;-75
2022/09/21 09:12:17;;;;;;;1.30;1.10;;;;;;;12.50;100.00;101804.41;5039886;28;20214;-75
2022/09/21 09:14:57;;;;;;;1.60;1.10;;;;;;;12.58;100.00;101793.81;5050074;28;20582;-75
2022/09/21 09:17:40;;;;;;;1.63;1.10;;;;;;;12.66;100.00;101791.97;5047176;28;20241;-75
2022/09/21 09:20:14;;;;;;;1.27;1.17;;;;;;;12.73;100.00;101795.31;5030909;28;20180;-75
2022/09/21 09:22:46;;;;;;;1.57;0.93;;;;;;;12.83;100.00;101790.81;5031808;28;20211;-75
2022/09/21 09:25:19;;;;;;;2.63;1.53;;;;;;;12.85;100.00;101797.72;5024621;28;20215;-76
2022/09/21 09:27:50;;;;;;;0.93;0.83;;;;;;;12.91;100.00;101795.91;5036389;28;20183;-75
2022/09/21 09:30:19;;;;;;;1.03;0.93;;;;;;;13.03;100.00;101791.34;5043729;28;20185;-75
2022/09/21 09:32:52;;;;;;;0.80;0.80;;;;;;;13.10;100.00;101785.97;5031764;28;20218;-75
2022/09/21 09:35:26;;;;;;;2.73;1.00;;;;;;;13.11;100.00;101793.78;5042656;28;20243;-75
2022/09/21 09:37:57;;;;;;;1.00;1.00;;;;;;;13.13;100.00;101789.38;5043661;28;20245;-75
2022/09/21 09:40:39;;;;;;;1.10;1.00;;;;;;;13.20;100.00;101785.75;5042267;28;20528;-75
2022/09/21 09:43:15;;;;;;;1.00;0.90;;;;;;;13.32;100.00;101791.72;5030273;28;20277;-75
2022/09/21 09:45:55;;;;;;;1.27;0.90;;;;;;;13.42;100.00;101786.25;5036261;28;20187;-76
2022/09/21 09:48:37;;;;;;;0.70;0.70;;;;;;;13.44;100.00;101788.88;5011596;28;20203;-77
2022/09/21 09:51:03;;;;;;;0.60;0.60;;;;;;;13.45;100.00;101785.31;5004188;28;20566;-77
2022/09/21 09:53:30;;;;;;;1.00;0.70;;;;;;;13.59;100.00;101787.69;5021256;28;20227;-76
2022/09/21 09:55:59;;;;;;;0.60;0.60;;;;;;;13.73;100.00;101788.25;5003627;28;20223;-76
2022/09/21 09:58:38;;;;;;;3.33;0.70;;;;;;;13.68;100.00;101790.09;5006726;28;20298;-76
2022/09/21 10:01:05;;;;;;;0.50;0.50;;;;;;;13.70;100.00;101784.84;5020440;28;20246;-76
2022/09/21 10:03:31;;;;;;;1.13;0.60;;;;;;;13.67;100.00;101777.91;5020185;28;20660;-75
2022/09/21 10:05:57;;;;;;;0.60;0.50;;;;;;;13.57;100.00;101790.31;5022921;28;20195;-75
2022/09/21 10:08:41;;;;;;;1.60;0.53;;;;;;;13.57;100.00;101789.47;5007330;28;20200;-77
2022/09/21 10:11:08;;;;;;;0.77;0.50;;;;;;;13.59;100.00;101788.53;5023603;28;20195;-77
2022/09/21 10:13:38;;;;;;;1.27;0.60;;;;;;;13.71;100.00;101776.09;5004973;28;20356;-77
2022/09/21 10:16:11;;;;;;;0.70;0.60;;;;;;;13.76;100.00;101782.97;5018695;28;20596;-76
2022/09/21 10:18:39;;;;;;;0.40;0.40;;;;;;;13.55;100.00;101786.03;5020024;28;20202;-76
2022/09/21 10:21:08;;;;;;;0.57;0.57;;;;;;;13.65;100.00;101782.31;5005155;28;20213;-77
2022/09/21 10:23:36;;;;;;;0.50;0.50;;;;;;;13.78;100.00;101780.31;5025085;28;20216;-76
2022/09/21 10:26:06;;;;;;;2.13;0.57;;;;;;;13.94;100.00;101788.69;5025417;28;20207;-76
2022/09/21 10:28:33;;;;;;;1.13;0.67;;;;;;;13.90;100.00;101782.66;5019179;28;20192;-76
2022/09/21 10:31:21;;;;;;;0.67;0.57;;;;;;;14.22;100.00;101778.47;5020388;28;20259;-77
2022/09/21 10:33:51;;;;;;;0.60;0.60;;;;;;;14.33;100.00;101775.59;5017904;28;20573;-76
2022/09/21 10:36:27;;;;;;;0.87;0.50;;;;;;;14.39;100.00;101780.69;5014477;28;20200;-76
2022/09/21 10:38:53;;;;;;;1.13;0.70;;;;;;;14.47;100.00;101765.63;5020001;28;20199;-77
2022/09/21 10:41:20;;;;;;;0.87;0.87;;;;;;;14.22;100.00;101767.97;5022467;28;20268;-76
2022/09/21 10:43:49;;;;;;;0.70;0.70;;;;;;;13.96;100.00;101771.19;5027492;28;20226;-77
2022/09/21 10:46:17;;;;;;;1.03;0.80;;;;;;;13.77;100.00;101778.56;5002434;28;20694;-77
2022/09/21 10:48:46;;;;;;;0.70;0.70;;;;;;;13.58;100.00;101778.97;5016638;28;20833;-77
2022/09/21 10:51:27;;;;;;;0.97;0.87;;;;;;;13.51;100.00;101774.75;5017055;28;20188;-77
2022/09/21 10:53:54;;;;;;;0.70;0.63;;;;;;;13.51;100.00;101771.25;5001063;28;20204;-76
2022/09/21 10:56:20;;;;;;;0.70;0.70;;;;;;;13.48;100.00;101772.19;5014240;28;20195;-77
2022/09/21 10:59:10;;;;;;;0.90;0.70;;;;;;;13.52;100.00;101770.34;5019663;28;20195;-77
2022/09/21 11:01:44;;;;;;;0.50;0.50;;;;;;;13.59;100.00;101764.94;5024030;28;20569;-77
2022/09/21 11:04:17;;;;;;;0.77;0.60;;;;;;;13.67;100.00;101759.56;5022790;28;20250;-77
2022/09/21 11:06:48;;;;;;;0.60;0.60;;;;;;;13.69;100.00;101765.63;5016427;28;20295;-76
2022/09/21 11:09:20;;;;;;;0.60;0.50;;;;;;;13.94;100.00;101760.72;4999962;28;20199;-76
2022/09/21 11:11:52;;;;;;;0.77;0.70;;;;;;;13.97;100.00;101763.28;5000748;28;20223;-77
2022/09/21 11:14:34;;;;;;;1.07;0.70;;;;;;;13.95;100.00;101757.22;5018625;28;20199;-77
2022/09/21 11:17:11;;;;;;;0.60;0.60;;;;;;;13.99;100.00;101758.00;5003455;28;20205;-77
2022/09/21 11:19:42;;;;;;;0.87;0.63;;;;;;;13.95;100.00;101764.22;5021574;28;20222;-77
2022/09/21 11:22:16;;;;;;;0.70;0.70;;;;;;;13.95;100.00;101761.59;5017678;28;20574;-77
2022/09/21 11:24:51;;;;;;;0.50;0.50;;;;;;;14.13;100.00;101760.31;5010180;28;20200;-77
2022/09/21 11:27:23;;;;;;;1.03;0.60;;;;;;;14.24;100.00;101767.94;4999258;28;20199;-77
2022/09/21 11:30:00;;;;;;;0.60;0.60;;;;;;;14.23;100.00;101758.31;5009146;28;20755;-77
2022/09/21 11:32:39;;;;;;;0.77;0.70;;;;;;;14.18;100.00;101764.56;5027368;28;20278;-77
2022/09/21 11:35:21;;;;;;;0.60;0.50;;;;;;;14.08;100.00;101764.81;5005428;28;20235;-77
2022/09/21 11:37:56;;;;;;;0.70;0.70;;;;;;;14.01;100.00;101764.94;5004040;28;20211;-77